Brown Springs, Arkansas
Current Conditions -  °F | °C
As of 7:53 AM on Thursday 30 Oct 2014 (Local Time) from KHOT Reporting Station
Light Rain Light Rain  
Wind Chill: 43°   Ceiling: 100
Heat Index: 43°   Visibility: 0mi
Dew Point: 42°   Wind: 0mph
Humidity: 97%   Direction: NA
Pressure: 30.17"   Gusts: NA
Location:  34.3189°N, 92.8629°W
Report Text: KHOT 301253Z AUTO 00000KT M1/4SM -RA FG VV001 06/06 A3017 RMK AO2 RAB50 SLP214 P0000 T00610056
Loading
Personal Weather Stations






























Interactive Weather Map
Tropical Storm Tracking
New forecast layout! Learn more

10-Day Weather Forecast

Advertisements
Track Severe Weather on mobile